sensor_id;sensor_type;location;lat;lon;timestamp;P1;durP1;ratioP1;P2;durP2;ratioP2
71665;SDS011;59503;53.486;10.196;2022-07-06T00:01:17;3.03;;;0.80;;
71665;SDS011;59503;53.486;10.196;2022-07-06T00:03:43;4.75;;;1.10;;
71665;SDS011;59503;53.486;10.196;2022-07-06T00:06:08;2.97;;;0.90;;
71665;SDS011;59503;53.486;10.196;2022-07-06T00:08:34;4.60;;;0.70;;
71665;SDS011;59503;53.486;10.196;2022-07-06T00:10:59;3.75;;;0.80;;
71665;SDS011;59503;53.486;10.196;2022-07-06T00:13:26;2.87;;;0.70;;
71665;SDS011;59503;53.486;10.196;2022-07-06T00:15:52;5.57;;;0.90;;
71665;SDS011;59503;53.486;10.196;2022-07-06T00:18:17;6.07;;;1.27;;
71665;SDS011;59503;53.486;10.196;2022-07-06T00:20:43;2.63;;;0.77;;
71665;SDS011;59503;53.486;10.196;2022-07-06T00:23:08;2.30;;;0.80;;
71665;SDS011;59503;53.486;10.196;2022-07-06T00:25:34;4.47;;;0.80;;
71665;SDS011;59503;53.486;10.196;2022-07-06T00:27:59;5.87;;;0.90;;
71665;SDS011;59503;53.486;10.196;2022-07-06T00:30:25;3.70;;;0.87;;
71665;SDS011;59503;53.486;10.196;2022-07-06T00:32:50;6.28;;;1.20;;
71665;SDS011;59503;53.486;10.196;2022-07-06T00:35:16;5.57;;;0.90;;
71665;SDS011;59503;53.486;10.196;2022-07-06T00:37:41;5.87;;;1.00;;
71665;SDS011;59503;53.486;10.196;2022-07-06T00:40:07;3.30;;;0.80;;
71665;SDS011;59503;53.486;10.196;2022-07-06T00:42:43;5.93;;;0.97;;
71665;SDS011;59503;53.486;10.196;2022-07-06T00:45:12;4.25;;;0.93;;
71665;SDS011;59503;53.486;10.196;2022-07-06T00:47:38;3.00;;;0.80;;
71665;SDS011;59503;53.486;10.196;2022-07-06T00:50:05;5.90;;;1.13;;
71665;SDS011;59503;53.486;10.196;2022-07-06T00:52:43;4.68;;;0.80;;
71665;SDS011;59503;53.486;10.196;2022-07-06T00:55:13;3.10;;;0.70;;
71665;SDS011;59503;53.486;10.196;2022-07-06T00:57:40;7.10;;;0.88;;
71665;SDS011;59503;53.486;10.196;2022-07-06T01:00:07;5.43;;;1.08;;
71665;SDS011;59503;53.486;10.196;2022-07-06T01:02:35;2.58;;;0.95;;
71665;SDS011;59503;53.486;10.196;2022-07-06T01:05:03;3.67;;;1.00;;
71665;SDS011;59503;53.486;10.196;2022-07-06T01:07:30;5.63;;;1.10;;
71665;SDS011;59503;53.486;10.196;2022-07-06T01:09:56;3.97;;;0.80;;
71665;SDS011;59503;53.486;10.196;2022-07-06T01:12:22;3.17;;;0.83;;
71665;SDS011;59503;53.486;10.196;2022-07-06T01:14:49;7.97;;;1.00;;
71665;SDS011;59503;53.486;10.196;2022-07-06T01:17:15;3.40;;;0.90;;
71665;SDS011;59503;53.486;10.196;2022-07-06T01:19:41;6.53;;;1.30;;
71665;SDS011;59503;53.486;10.196;2022-07-06T01:22:08;7.47;;;1.00;;
71665;SDS011;59503;53.486;10.196;2022-07-06T01:24:37;4.72;;;0.70;;
71665;SDS011;59503;53.486;10.196;2022-07-06T01:27:03;3.15;;;0.80;;
71665;SDS011;59503;53.486;10.196;2022-07-06T01:29:31;4.85;;;0.93;;
71665;SDS011;59503;53.486;10.196;2022-07-06T01:31:57;3.25;;;0.77;;
71665;SDS011;59503;53.486;10.196;2022-07-06T01:34:23;2.83;;;0.77;;
71665;SDS011;59503;53.486;10.196;2022-07-06T01:36:49;3.22;;;1.10;;
71665;SDS011;59503;53.486;10.196;2022-07-06T01:39:14;6.53;;;1.00;;
71665;SDS011;59503;53.486;10.196;2022-07-06T01:41:40;5.23;;;1.00;;
71665;SDS011;59503;53.486;10.196;2022-07-06T01:44:06;5.82;;;1.10;;
71665;SDS011;59503;53.486;10.196;2022-07-06T01:46:32;8.27;;;0.83;;
71665;SDS011;59503;53.486;10.196;2022-07-06T01:48:57;5.32;;;0.85;;
71665;SDS011;59503;53.486;10.196;2022-07-06T01:51:23;5.93;;;1.00;;
71665;SDS011;59503;53.486;10.196;2022-07-06T01:53:49;4.13;;;1.15;;
71665;SDS011;59503;53.486;10.196;2022-07-06T01:56:15;4.93;;;0.95;;
71665;SDS011;59503;53.486;10.196;2022-07-06T01:58:42;2.78;;;0.70;;
71665;SDS011;59503;53.486;10.196;2022-07-06T02:01:08;5.40;;;1.03;;
71665;SDS011;59503;53.486;10.196;2022-07-06T02:03:38;6.78;;;0.93;;
71665;SDS011;59503;53.486;10.196;2022-07-06T02:06:05;5.20;;;1.30;;
71665;SDS011;59503;53.486;10.196;2022-07-06T02:08:31;4.53;;;1.00;;
71665;SDS011;59503;53.486;10.196;2022-07-06T02:11:01;2.78;;;1.00;;
71665;SDS011;59503;53.486;10.196;2022-07-06T02:13:30;7.30;;;1.20;;
71665;SDS011;59503;53.486;10.196;2022-07-06T02:15:55;8.63;;;1.43;;
71665;SDS011;59503;53.486;10.196;2022-07-06T02:18:21;4.50;;;1.23;;
71665;SDS011;59503;53.486;10.196;2022-07-06T02:20:46;11.53;;;1.20;;
71665;SDS011;59503;53.486;10.196;2022-07-06T02:23:12;4.77;;;1.07;;
71665;SDS011;59503;53.486;10.196;2022-07-06T02:25:38;4.05;;;1.23;;
71665;SDS011;59503;53.486;10.196;2022-07-06T02:28:03;7.47;;;1.00;;
71665;SDS011;59503;53.486;10.196;2022-07-06T02:30:29;5.22;;;1.45;;
71665;SDS011;59503;53.486;10.196;2022-07-06T02:32:55;6.03;;;0.97;;
71665;SDS011;59503;53.486;10.196;2022-07-06T02:35:20;8.45;;;1.35;;
71665;SDS011;59503;53.486;10.196;2022-07-06T02:37:46;5.10;;;1.03;;
71665;SDS011;59503;53.486;10.196;2022-07-06T02:40:11;5.03;;;0.93;;
71665;SDS011;59503;53.486;10.196;2022-07-06T02:42:37;3.67;;;1.05;;
71665;SDS011;59503;53.486;10.196;2022-07-06T02:45:03;6.63;;;1.42;;
71665;SDS011;59503;53.486;10.196;2022-07-06T02:47:29;7.30;;;1.50;;
71665;SDS011;59503;53.486;10.196;2022-07-06T02:49:55;3.60;;;1.10;;
71665;SDS011;59503;53.486;10.196;2022-07-06T02:52:21;8.33;;;1.20;;
71665;SDS011;59503;53.486;10.196;2022-07-06T02:54:46;6.90;;;1.40;;
71665;SDS011;59503;53.486;10.196;2022-07-06T02:57:14;4.97;;;1.70;;
71665;SDS011;59503;53.486;10.196;2022-07-06T02:59:40;3.97;;;1.08;;
71665;SDS011;59503;53.486;10.196;2022-07-06T03:02:06;8.55;;;1.55;;
71665;SDS011;59503;53.486;10.196;2022-07-06T03:04:33;4.25;;;1.13;;
71665;SDS011;59503;53.486;10.196;2022-07-06T03:06:59;4.47;;;1.67;;
71665;SDS011;59503;53.486;10.196;2022-07-06T03:09:25;4.50;;;1.57;;
71665;SDS011;59503;53.486;10.196;2022-07-06T03:11:50;7.53;;;1.90;;
71665;SDS011;59503;53.486;10.196;2022-07-06T03:14:16;5.63;;;1.63;;
71665;SDS011;59503;53.486;10.196;2022-07-06T03:16:42;8.25;;;1.73;;
71665;SDS011;59503;53.486;10.196;2022-07-06T03:19:08;6.37;;;1.60;;
71665;SDS011;59503;53.486;10.196;2022-07-06T03:21:33;7.72;;;2.05;;
71665;SDS011;59503;53.486;10.196;2022-07-06T03:23:59;8.63;;;2.67;;
71665;SDS011;59503;53.486;10.196;2022-07-06T03:26:24;8.98;;;1.83;;
71665;SDS011;59503;53.486;10.196;2022-07-06T03:28:50;6.10;;;1.50;;
71665;SDS011;59503;53.486;10.196;2022-07-06T03:31:15;9.73;;;1.70;;
71665;SDS011;59503;53.486;10.196;2022-07-06T03:33:41;4.43;;;1.60;;
71665;SDS011;59503;53.486;10.196;2022-07-06T03:36:07;5.87;;;1.40;;
71665;SDS011;59503;53.486;10.196;2022-07-06T03:38:33;7.07;;;1.30;;
71665;SDS011;59503;53.486;10.196;2022-07-06T03:40:59;6.40;;;1.48;;
71665;SDS011;59503;53.486;10.196;2022-07-06T03:43:24;5.57;;;1.37;;
71665;SDS011;59503;53.486;10.196;2022-07-06T03:45:50;7.28;;;1.25;;
71665;SDS011;59503;53.486;10.196;2022-07-06T03:48:15;10.40;;;1.30;;
71665;SDS011;59503;53.486;10.196;2022-07-06T03:50:41;7.47;;;1.40;;
71665;SDS011;59503;53.486;10.196;2022-07-06T03:53:07;5.60;;;1.53;;
71665;SDS011;59503;53.486;10.196;2022-07-06T03:55:32;4.77;;;1.10;;
71665;SDS011;59503;53.486;10.196;2022-07-06T03:57:58;8.85;;;1.30;;
71665;SDS011;59503;53.486;10.196;2022-07-06T04:00:23;8.47;;;1.00;;
71665;SDS011;59503;53.486;10.196;2022-07-06T04:02:49;4.23;;;1.20;;
71665;SDS011;59503;53.486;10.196;2022-07-06T04:05:14;3.67;;;1.00;;
71665;SDS011;59503;53.486;10.196;2022-07-06T04:07:40;3.73;;;0.83;;
71665;SDS011;59503;53.486;10.196;2022-07-06T04:10:06;7.25;;;1.40;;
71665;SDS011;59503;53.486;10.196;2022-07-06T04:12:32;3.50;;;1.00;;
71665;SDS011;59503;53.486;10.196;2022-07-06T04:15:05;3.03;;;1.07;;
71665;SDS011;59503;53.486;10.196;2022-07-06T04:17:31;5.93;;;0.98;;
71665;SDS011;59503;53.486;10.196;2022-07-06T04:20:15;3.70;;;1.00;;
71665;SDS011;59503;53.486;10.196;2022-07-06T04:22:40;7.07;;;1.05;;
71665;SDS011;59503;53.486;10.196;2022-07-06T04:25:06;4.73;;;0.93;;
71665;SDS011;59503;53.486;10.196;2022-07-06T04:27:32;2.60;;;0.70;;
71665;SDS011;59503;53.486;10.196;2022-07-06T04:29:58;4.47;;;0.80;;
71665;SDS011;59503;53.486;10.196;2022-07-06T04:32:23;9.13;;;1.23;;
71665;SDS011;59503;53.486;10.196;2022-07-06T04:34:49;2.83;;;0.77;;
71665;SDS011;59503;53.486;10.196;2022-07-06T04:37:17;6.27;;;1.13;;
71665;SDS011;59503;53.486;10.196;2022-07-06T04:39:42;6.40;;;0.90;;
71665;SDS011;59503;53.486;10.196;2022-07-06T04:42:08;4.93;;;0.80;;
71665;SDS011;59503;53.486;10.196;2022-07-06T04:44:33;4.47;;;0.87;;
71665;SDS011;59503;53.486;10.196;2022-07-06T04:46:59;4.75;;;0.82;;
71665;SDS011;59503;53.486;10.196;2022-07-06T04:49:24;4.17;;;0.80;;
71665;SDS011;59503;53.486;10.196;2022-07-06T04:51:50;4.67;;;1.00;;
71665;SDS011;59503;53.486;10.196;2022-07-06T04:54:16;8.68;;;1.02;;
71665;SDS011;59503;53.486;10.196;2022-07-06T04:56:41;10.60;;;1.30;;
71665;SDS011;59503;53.486;10.196;2022-07-06T04:59:07;10.25;;;1.38;;
71665;SDS011;59503;53.486;10.196;2022-07-06T05:01:33;2.70;;;0.80;;
71665;SDS011;59503;53.486;10.196;2022-07-06T05:03:59;6.93;;;1.00;;
71665;SDS011;59503;53.486;10.196;2022-07-06T05:06:25;3.65;;;1.20;;
71665;SDS011;59503;53.486;10.196;2022-07-06T05:08:50;5.37;;;1.13;;
71665;SDS011;59503;53.486;10.196;2022-07-06T05:11:16;4.50;;;0.90;;
71665;SDS011;59503;53.486;10.196;2022-07-06T05:13:41;3.13;;;0.90;;
71665;SDS011;59503;53.486;10.196;2022-07-06T05:16:07;5.37;;;0.90;;
71665;SDS011;59503;53.486;10.196;2022-07-06T05:18:33;4.03;;;0.77;;
71665;SDS011;59503;53.486;10.196;2022-07-06T05:20:58;4.70;;;0.90;;
71665;SDS011;59503;53.486;10.196;2022-07-06T05:23:24;3.47;;;0.70;;
71665;SDS011;59503;53.486;10.196;2022-07-06T05:25:49;7.57;;;1.20;;
71665;SDS011;59503;53.486;10.196;2022-07-06T05:28:15;4.00;;;0.80;;
71665;SDS011;59503;53.486;10.196;2022-07-06T05:30:40;4.22;;;0.82;;
71665;SDS011;59503;53.486;10.196;2022-07-06T05:33:06;8.50;;;1.10;;
71665;SDS011;59503;53.486;10.196;2022-07-06T05:35:31;11.17;;;0.90;;
71665;SDS011;59503;53.486;10.196;2022-07-06T05:37:57;4.77;;;0.97;;
71665;SDS011;59503;53.486;10.196;2022-07-06T05:40:22;3.72;;;0.80;;
71665;SDS011;59503;53.486;10.196;2022-07-06T05:42:48;3.93;;;0.77;;
71665;SDS011;59503;53.486;10.196;2022-07-06T05:45:13;9.73;;;0.80;;
71665;SDS011;59503;53.486;10.196;2022-07-06T05:47:39;6.03;;;0.70;;
71665;SDS011;59503;53.486;10.196;2022-07-06T05:50:23;4.65;;;0.82;;
71665;SDS011;59503;53.486;10.196;2022-07-06T05:52:55;6.73;;;0.73;;
71665;SDS011;59503;53.486;10.196;2022-07-06T05:55:23;4.25;;;0.60;;
71665;SDS011;59503;53.486;10.196;2022-07-06T05:57:48;7.68;;;1.25;;
71665;SDS011;59503;53.486;10.196;2022-07-06T06:00:15;4.93;;;1.00;;
71665;SDS011;59503;53.486;10.196;2022-07-06T06:02:41;1.40;;;0.73;;
71665;SDS011;59503;53.486;10.196;2022-07-06T06:05:08;5.38;;;0.70;;
71665;SDS011;59503;53.486;10.196;2022-07-06T06:07:35;4.18;;;0.80;;
71665;SDS011;59503;53.486;10.196;2022-07-06T06:10:02;5.43;;;0.77;;
71665;SDS011;59503;53.486;10.196;2022-07-06T06:12:29;4.30;;;0.80;;
71665;SDS011;59503;53.486;10.196;2022-07-06T06:14:55;3.90;;;0.70;;
71665;SDS011;59503;53.486;10.196;2022-07-06T06:17:20;7.80;;;1.00;;
71665;SDS011;59503;53.486;10.196;2022-07-06T06:19:46;4.87;;;0.60;;
71665;SDS011;59503;53.486;10.196;2022-07-06T06:22:11;5.43;;;0.70;;
71665;SDS011;59503;53.486;10.196;2022-07-06T06:24:37;5.47;;;0.93;;
71665;SDS011;59503;53.486;10.196;2022-07-06T06:27:02;3.37;;;0.90;;
71665;SDS011;59503;53.486;10.196;2022-07-06T06:29:28;3.60;;;0.73;;
71665;SDS011;59503;53.486;10.196;2022-07-06T06:31:54;4.27;;;0.90;;
71665;SDS011;59503;53.486;10.196;2022-07-06T06:34:19;3.30;;;0.63;;
71665;SDS011;59503;53.486;10.196;2022-07-06T06:36:45;4.13;;;0.60;;
71665;SDS011;59503;53.486;10.196;2022-07-06T06:39:10;4.53;;;0.60;;
71665;SDS011;59503;53.486;10.196;2022-07-06T06:41:35;5.45;;;0.75;;
71665;SDS011;59503;53.486;10.196;2022-07-06T06:44:01;4.57;;;1.13;;
71665;SDS011;59503;53.486;10.196;2022-07-06T06:46:26;6.93;;;0.90;;
71665;SDS011;59503;53.486;10.196;2022-07-06T06:48:52;5.50;;;0.85;;
71665;SDS011;59503;53.486;10.196;2022-07-06T06:51:17;4.43;;;0.63;;
71665;SDS011;59503;53.486;10.196;2022-07-06T06:53:43;5.13;;;0.90;;
71665;SDS011;59503;53.486;10.196;2022-07-06T06:56:09;4.80;;;0.98;;
71665;SDS011;59503;53.486;10.196;2022-07-06T06:58:34;5.60;;;0.67;;
71665;SDS011;59503;53.486;10.196;2022-07-06T07:01:00;3.17;;;0.63;;
71665;SDS011;59503;53.486;10.196;2022-07-06T07:03:25;4.80;;;0.70;;
71665;SDS011;59503;53.486;10.196;2022-07-06T07:05:51;2.60;;;0.73;;
71665;SDS011;59503;53.486;10.196;2022-07-06T07:08:16;4.63;;;0.77;;
71665;SDS011;59503;53.486;10.196;2022-07-06T07:10:42;1.85;;;0.88;;
71665;SDS011;59503;53.486;10.196;2022-07-06T07:13:08;5.30;;;0.80;;
71665;SDS011;59503;53.486;10.196;2022-07-06T07:15:33;5.07;;;0.60;;
71665;SDS011;59503;53.486;10.196;2022-07-06T07:17:59;3.65;;;0.80;;
71665;SDS011;59503;53.486;10.196;2022-07-06T07:20:24;7.83;;;0.80;;
71665;SDS011;59503;53.486;10.196;2022-07-06T07:22:50;4.53;;;0.77;;
71665;SDS011;59503;53.486;10.196;2022-07-06T07:25:16;2.47;;;0.70;;
71665;SDS011;59503;53.486;10.196;2022-07-06T07:27:41;5.63;;;0.70;;
71665;SDS011;59503;53.486;10.196;2022-07-06T07:30:07;3.43;;;0.60;;
71665;SDS011;59503;53.486;10.196;2022-07-06T07:32:33;1.60;;;0.70;;
71665;SDS011;59503;53.486;10.196;2022-07-06T07:34:59;5.07;;;0.60;;
71665;SDS011;59503;53.486;10.196;2022-07-06T07:37:24;8.37;;;0.73;;
71665;SDS011;59503;53.486;10.196;2022-07-06T07:39:49;6.47;;;0.70;;
71665;SDS011;59503;53.486;10.196;2022-07-06T07:42:15;3.65;;;0.70;;
71665;SDS011;59503;53.486;10.196;2022-07-06T07:44:41;6.33;;;1.00;;
71665;SDS011;59503;53.486;10.196;2022-07-06T07:47:06;3.90;;;0.60;;
71665;SDS011;59503;53.486;10.196;2022-07-06T07:49:32;5.70;;;0.63;;
71665;SDS011;59503;53.486;10.196;2022-07-06T07:51:57;2.87;;;0.80;;
71665;SDS011;59503;53.486;10.196;2022-07-06T07:54:23;5.80;;;0.52;;
71665;SDS011;59503;53.486;10.196;2022-07-06T07:56:48;5.73;;;0.73;;
71665;SDS011;59503;53.486;10.196;2022-07-06T07:59:14;4.77;;;0.90;;
71665;SDS011;59503;53.486;10.196;2022-07-06T08:01:39;7.38;;;0.63;;
71665;SDS011;59503;53.486;10.196;2022-07-06T08:04:05;7.03;;;0.87;;
71665;SDS011;59503;53.486;10.196;2022-07-06T08:06:31;5.90;;;0.75;;
71665;SDS011;59503;53.486;10.196;2022-07-06T08:08:56;6.67;;;0.70;;
71665;SDS011;59503;53.486;10.196;2022-07-06T08:11:22;3.53;;;0.80;;
71665;SDS011;59503;53.486;10.196;2022-07-06T08:13:48;3.57;;;0.83;;
71665;SDS011;59503;53.486;10.196;2022-07-06T08:16:13;2.88;;;0.70;;
71665;SDS011;59503;53.486;10.196;2022-07-06T08:18:39;4.23;;;0.80;;
71665;SDS011;59503;53.486;10.196;2022-07-06T08:21:04;6.60;;;0.90;;
71665;SDS011;59503;53.486;10.196;2022-07-06T08:23:30;5.10;;;0.70;;
71665;SDS011;59503;53.486;10.196;2022-07-06T08:25:56;2.80;;;0.70;;
71665;SDS011;59503;53.486;10.196;2022-07-06T08:28:21;1.67;;;0.43;;
71665;SDS011;59503;53.486;10.196;2022-07-06T08:30:47;2.33;;;0.70;;
71665;SDS011;59503;53.486;10.196;2022-07-06T08:33:13;4.72;;;0.80;;
71665;SDS011;59503;53.486;10.196;2022-07-06T08:35:39;5.43;;;0.60;;
71665;SDS011;59503;53.486;10.196;2022-07-06T08:38:05;8.50;;;0.63;;
71665;SDS011;59503;53.486;10.196;2022-07-06T08:40:32;5.22;;;0.55;;
71665;SDS011;59503;53.486;10.196;2022-07-06T08:43:00;3.33;;;0.50;;
71665;SDS011;59503;53.486;10.196;2022-07-06T08:45:26;4.22;;;0.45;;
71665;SDS011;59503;53.486;10.196;2022-07-06T08:47:53;4.10;;;0.70;;
71665;SDS011;59503;53.486;10.196;2022-07-06T08:50:19;5.10;;;0.60;;
71665;SDS011;59503;53.486;10.196;2022-07-06T08:52:47;3.40;;;0.60;;
71665;SDS011;59503;53.486;10.196;2022-07-06T08:55:15;3.73;;;0.80;;
71665;SDS011;59503;53.486;10.196;2022-07-06T08:57:41;5.15;;;0.50;;
71665;SDS011;59503;53.486;10.196;2022-07-06T09:00:07;5.15;;;1.02;;
71665;SDS011;59503;53.486;10.196;2022-07-06T09:02:33;4.68;;;0.90;;
71665;SDS011;59503;53.486;10.196;2022-07-06T09:05:00;2.80;;;0.80;;
71665;SDS011;59503;53.486;10.196;2022-07-06T09:07:28;7.60;;;0.73;;
71665;SDS011;59503;53.486;10.196;2022-07-06T09:09:55;4.28;;;0.60;;
71665;SDS011;59503;53.486;10.196;2022-07-06T09:12:22;2.55;;;0.85;;
71665;SDS011;59503;53.486;10.196;2022-07-06T09:14:54;3.03;;;0.60;;
71665;SDS011;59503;53.486;10.196;2022-07-06T09:17:20;2.60;;;0.60;;
71665;SDS011;59503;53.486;10.196;2022-07-06T09:19:46;1.92;;;0.80;;
71665;SDS011;59503;53.486;10.196;2022-07-06T09:22:24;3.00;;;0.70;;
71665;SDS011;59503;53.486;10.196;2022-07-06T09:24:50;5.00;;;0.80;;
71665;SDS011;59503;53.486;10.196;2022-07-06T09:27:16;3.90;;;0.70;;
71665;SDS011;59503;53.486;10.196;2022-07-06T09:29:42;1.85;;;0.63;;
71665;SDS011;59503;53.486;10.196;2022-07-06T09:32:08;1.55;;;0.50;;
71665;SDS011;59503;53.486;10.196;2022-07-06T09:34:44;3.90;;;0.60;;
71665;SDS011;59503;53.486;10.196;2022-07-06T09:37:11;3.55;;;0.50;;
71665;SDS011;59503;53.486;10.196;2022-07-06T09:39:38;3.05;;;0.50;;
71665;SDS011;59503;53.486;10.196;2022-07-06T09:42:06;3.38;;;0.50;;
71665;SDS011;59503;53.486;10.196;2022-07-06T09:44:39;2.87;;;0.50;;
71665;SDS011;59503;53.486;10.196;2022-07-06T09:47:07;5.32;;;0.60;;
71665;SDS011;59503;53.486;10.196;2022-07-06T09:49:35;4.38;;;0.60;;
71665;SDS011;59503;53.486;10.196;2022-07-06T09:52:02;4.97;;;0.57;;
71665;SDS011;59503;53.486;10.196;2022-07-06T09:54:29;1.95;;;0.55;;
71665;SDS011;59503;53.486;10.196;2022-07-06T09:56:56;2.30;;;0.63;;
71665;SDS011;59503;53.486;10.196;2022-07-06T09:59:23;1.35;;;0.43;;
71665;SDS011;59503;53.486;10.196;2022-07-06T10:01:53;3.78;;;0.60;;
71665;SDS011;59503;53.486;10.196;2022-07-06T10:04:21;2.60;;;0.80;;
71665;SDS011;59503;53.486;10.196;2022-07-06T10:06:48;3.83;;;0.70;;
71665;SDS011;59503;53.486;10.196;2022-07-06T10:09:14;2.20;;;0.80;;
71665;SDS011;59503;53.486;10.196;2022-07-06T10:11:41;2.33;;;0.70;;
71665;SDS011;59503;53.486;10.196;2022-07-06T10:14:09;2.17;;;0.60;;
71665;SDS011;59503;53.486;10.196;2022-07-06T10:16:37;3.20;;;1.10;;
71665;SDS011;59503;53.486;10.196;2022-07-06T10:19:05;4.23;;;0.80;;
71665;SDS011;59503;53.486;10.196;2022-07-06T10:21:32;3.50;;;0.70;;
71665;SDS011;59503;53.486;10.196;2022-07-06T10:24:00;3.75;;;0.63;;
71665;SDS011;59503;53.486;10.196;2022-07-06T10:26:27;3.45;;;0.70;;
71665;SDS011;59503;53.486;10.196;2022-07-06T10:28:52;3.90;;;0.60;;
71665;SDS011;59503;53.486;10.196;2022-07-06T10:31:18;4.97;;;1.00;;
71665;SDS011;59503;53.486;10.196;2022-07-06T10:33:44;4.53;;;0.75;;
71665;SDS011;59503;53.486;10.196;2022-07-06T10:36:11;7.43;;;0.85;;
71665;SDS011;59503;53.486;10.196;2022-07-06T10:38:38;1.40;;;0.60;;
71665;SDS011;59503;53.486;10.196;2022-07-06T10:41:05;4.82;;;0.80;;
71665;SDS011;59503;53.486;10.196;2022-07-06T10:45:58;3.13;;;0.60;;
71665;SDS011;59503;53.486;10.196;2022-07-06T10:48:23;2.30;;;0.75;;
71665;SDS011;59503;53.486;10.196;2022-07-06T10:50:53;1.83;;;0.63;;
71665;SDS011;59503;53.486;10.196;2022-07-06T10:53:24;3.17;;;0.80;;
71665;SDS011;59503;53.486;10.196;2022-07-06T10:55:52;2.67;;;0.90;;
71665;SDS011;59503;53.486;10.196;2022-07-06T11:01:00;2.30;;;0.60;;
71665;SDS011;59503;53.486;10.196;2022-07-06T11:06:07;4.82;;;0.50;;
71665;SDS011;59503;53.486;10.196;2022-07-06T11:11:17;4.15;;;0.40;;
71665;SDS011;59503;53.486;10.196;2022-07-06T11:16:33;1.07;;;0.30;;
71665;SDS011;59503;53.486;10.196;2022-07-06T11:19:04;3.33;;;0.60;;
71665;SDS011;59503;53.486;10.196;2022-07-06T11:21:38;2.20;;;0.50;;
71665;SDS011;59503;53.486;10.196;2022-07-06T11:24:06;2.47;;;0.60;;
71665;SDS011;59503;53.486;10.196;2022-07-06T11:26:33;2.63;;;0.50;;
71665;SDS011;59503;53.486;10.196;2022-07-06T11:29:03;2.25;;;0.40;;
71665;SDS011;59503;53.486;10.196;2022-07-06T11:31:32;3.13;;;0.50;;
71665;SDS011;59503;53.486;10.196;2022-07-06T11:33:59;3.38;;;0.52;;
71665;SDS011;59503;53.486;10.196;2022-07-06T11:36:24;2.00;;;0.50;;
71665;SDS011;59503;53.486;10.196;2022-07-06T11:38:50;2.87;;;0.57;;
71665;SDS011;59503;53.486;10.196;2022-07-06T11:41:16;1.60;;;0.50;;
71665;SDS011;59503;53.486;10.196;2022-07-06T11:43:43;2.53;;;0.70;;
71665;SDS011;59503;53.486;10.196;2022-07-06T11:46:31;2.50;;;0.50;;
71665;SDS011;59503;53.486;10.196;2022-07-06T11:48:57;2.72;;;0.60;;
71665;SDS011;59503;53.486;10.196;2022-07-06T11:51:25;2.35;;;0.82;;
71665;SDS011;59503;53.486;10.196;2022-07-06T11:53:56;2.88;;;0.82;;
71665;SDS011;59503;53.486;10.196;2022-07-06T11:56:24;2.27;;;0.73;;
71665;SDS011;59503;53.486;10.196;2022-07-06T11:58:58;3.78;;;0.60;;
71665;SDS011;59503;53.486;10.196;2022-07-06T12:01:25;7.40;;;0.90;;
71665;SDS011;59503;53.486;10.196;2022-07-06T12:03:52;3.40;;;0.50;;
71665;SDS011;59503;53.486;10.196;2022-07-06T12:06:22;1.52;;;0.60;;
71665;SDS011;59503;53.486;10.196;2022-07-06T12:11:24;3.63;;;0.60;;
71665;SDS011;59503;53.486;10.196;2022-07-06T12:13:53;3.67;;;0.68;;
71665;SDS011;59503;53.486;10.196;2022-07-06T12:16:19;4.93;;;0.90;;
71665;SDS011;59503;53.486;10.196;2022-07-06T12:18:48;3.50;;;0.57;;
71665;SDS011;59503;53.486;10.196;2022-07-06T12:21:15;3.30;;;0.70;;
71665;SDS011;59503;53.486;10.196;2022-07-06T12:23:45;4.55;;;0.70;;
71665;SDS011;59503;53.486;10.196;2022-07-06T12:26:13;4.88;;;0.77;;
71665;SDS011;59503;53.486;10.196;2022-07-06T12:28:41;3.63;;;1.00;;
71665;SDS011;59503;53.486;10.196;2022-07-06T12:31:07;4.10;;;1.10;;
71665;SDS011;59503;53.486;10.196;2022-07-06T12:33:33;4.03;;;1.10;;
71665;SDS011;59503;53.486;10.196;2022-07-06T12:36:09;4.50;;;0.90;;
71665;SDS011;59503;53.486;10.196;2022-07-06T12:38:36;2.05;;;0.90;;
71665;SDS011;59503;53.486;10.196;2022-07-06T12:41:28;4.00;;;0.90;;
71665;SDS011;59503;53.486;10.196;2022-07-06T12:44:02;3.63;;;0.80;;
71665;SDS011;59503;53.486;10.196;2022-07-06T12:46:33;4.55;;;0.90;;
71665;SDS011;59503;53.486;10.196;2022-07-06T12:49:02;3.33;;;1.10;;
71665;SDS011;59503;53.486;10.196;2022-07-06T12:51:29;4.05;;;1.10;;
71665;SDS011;59503;53.486;10.196;2022-07-06T12:54:15;3.87;;;1.03;;
71665;SDS011;59503;53.486;10.196;2022-07-06T12:59:31;2.30;;;0.70;;
71665;SDS011;59503;53.486;10.196;2022-07-06T13:01:58;2.72;;;1.00;;
71665;SDS011;59503;53.486;10.196;2022-07-06T13:04:24;3.33;;;0.60;;
71665;SDS011;59503;53.486;10.196;2022-07-06T13:06:51;2.53;;;0.60;;
71665;SDS011;59503;53.486;10.196;2022-07-06T13:09:17;2.80;;;0.65;;
71665;SDS011;59503;53.486;10.196;2022-07-06T13:11:45;5.80;;;1.07;;
71665;SDS011;59503;53.486;10.196;2022-07-06T13:14:11;2.55;;;0.70;;
71665;SDS011;59503;53.486;10.196;2022-07-06T13:16:37;2.88;;;0.80;;
71665;SDS011;59503;53.486;10.196;2022-07-06T13:19:03;5.87;;;0.83;;
71665;SDS011;59503;53.486;10.196;2022-07-06T13:21:28;4.47;;;0.98;;
71665;SDS011;59503;53.486;10.196;2022-07-06T13:23:54;5.20;;;0.80;;
71665;SDS011;59503;53.486;10.196;2022-07-06T13:26:19;5.47;;;1.08;;
71665;SDS011;59503;53.486;10.196;2022-07-06T13:28:45;4.83;;;1.00;;
71665;SDS011;59503;53.486;10.196;2022-07-06T13:31:11;3.83;;;1.00;;
71665;SDS011;59503;53.486;10.196;2022-07-06T13:33:37;5.88;;;1.40;;
71665;SDS011;59503;53.486;10.196;2022-07-06T13:36:02;1.73;;;0.70;;
71665;SDS011;59503;53.486;10.196;2022-07-06T13:38:28;2.20;;;0.73;;
71665;SDS011;59503;53.486;10.196;2022-07-06T13:40:54;2.80;;;0.60;;
71665;SDS011;59503;53.486;10.196;2022-07-06T13:43:20;2.13;;;0.63;;
71665;SDS011;59503;53.486;10.196;2022-07-06T13:45:46;3.08;;;0.80;;
71665;SDS011;59503;53.486;10.196;2022-07-06T13:48:12;2.13;;;0.70;;
71665;SDS011;59503;53.486;10.196;2022-07-06T13:50:38;5.85;;;0.50;;
71665;SDS011;59503;53.486;10.196;2022-07-06T13:53:03;3.83;;;0.70;;
71665;SDS011;59503;53.486;10.196;2022-07-06T13:55:29;1.00;;;0.60;;
71665;SDS011;59503;53.486;10.196;2022-07-06T13:57:55;1.73;;;0.50;;
71665;SDS011;59503;53.486;10.196;2022-07-06T14:00:21;1.90;;;0.70;;
71665;SDS011;59503;53.486;10.196;2022-07-06T14:02:46;2.50;;;0.80;;
71665;SDS011;59503;53.486;10.196;2022-07-06T14:05:12;3.77;;;0.80;;
71665;SDS011;59503;53.486;10.196;2022-07-06T14:07:38;4.10;;;0.70;;
71665;SDS011;59503;53.486;10.196;2022-07-06T14:10:03;1.53;;;0.60;;
71665;SDS011;59503;53.486;10.196;2022-07-06T14:12:29;2.47;;;0.60;;
71665;SDS011;59503;53.486;10.196;2022-07-06T14:14:55;1.43;;;0.50;;
71665;SDS011;59503;53.486;10.196;2022-07-06T14:17:20;1.97;;;0.50;;
71665;SDS011;59503;53.486;10.196;2022-07-06T14:19:47;2.20;;;0.73;;
71665;SDS011;59503;53.486;10.196;2022-07-06T14:22:13;2.22;;;0.80;;
71665;SDS011;59503;53.486;10.196;2022-07-06T14:24:39;2.67;;;0.70;;
71665;SDS011;59503;53.486;10.196;2022-07-06T14:27:04;2.15;;;0.80;;
71665;SDS011;59503;53.486;10.196;2022-07-06T14:29:30;1.40;;;0.57;;
71665;SDS011;59503;53.486;10.196;2022-07-06T14:31:55;1.37;;;0.50;;
71665;SDS011;59503;53.486;10.196;2022-07-06T14:34:21;2.20;;;0.60;;
71665;SDS011;59503;53.486;10.196;2022-07-06T14:36:47;1.57;;;0.60;;
71665;SDS011;59503;53.486;10.196;2022-07-06T14:39:12;2.73;;;0.67;;
71665;SDS011;59503;53.486;10.196;2022-07-06T14:41:38;2.97;;;0.60;;
71665;SDS011;59503;53.486;10.196;2022-07-06T14:44:04;3.63;;;0.60;;
71665;SDS011;59503;53.486;10.196;2022-07-06T14:46:30;5.43;;;0.60;;
71665;SDS011;59503;53.486;10.196;2022-07-06T14:48:56;2.28;;;0.57;;